Time;durP1;ratioP1;P1;durP2;ratioP2;P2;SDS_P1;SDS_P2;PMS_P1;PMS_P2;Temp;Humidity;BMP_temperature;BMP_pressure;BME280_temperature;BME280_humidity;BME280_pressure;Samples;Min_cycle;Max_cycle;Signal;HPM_P1;HPM_P2
2022/03/07 00:00:19;;;;;;;12.88;9.02;;;;;;;-3.58;75.38;102703.63;4995489;28;20458;-72
2022/03/07 00:02:45;;;;;;;12.80;8.88;;;;;;;-3.61;76.47;102705.97;4997077;28;20084;-73
2022/03/07 00:05:10;;;;;;;13.68;8.50;;;;;;;-3.69;76.07;102697.72;5010674;28;20035;-73
2022/03/07 00:07:55;;;;;;;9.82;7.45;;;;;;;-3.74;76.92;102705.03;5008353;28;20128;-74
2022/03/07 00:10:20;;;;;;;10.13;8.15;;;;;;;-3.75;77.80;102704.91;5008498;28;20057;-72
2022/03/07 00:12:46;;;;;;;13.15;9.55;;;;;;;-3.80;77.31;102702.00;5012841;28;20057;-73
2022/03/07 00:15:11;;;;;;;11.80;8.23;;;;;;;-3.84;77.45;102700.84;5010105;28;20046;-73
2022/03/07 00:17:37;;;;;;;10.77;8.50;;;;;;;-3.87;78.18;102697.19;5005478;28;20080;-73
2022/03/07 00:20:04;;;;;;;12.02;9.30;;;;;;;-3.95;77.55;102694.03;5007882;28;20124;-73
2022/03/07 00:22:30;;;;;;;12.68;8.70;;;;;;;-4.01;77.29;102694.47;4988673;28;20088;-73
2022/03/07 00:24:55;;;;;;;12.07;8.75;;;;;;;-4.07;77.72;102693.97;5009037;28;20064;-72
2022/03/07 00:27:25;;;;;;;12.23;9.23;;;;;;;-4.11;78.41;102696.16;5008783;28;20514;-72
2022/03/07 00:29:53;;;;;;;14.65;9.95;;;;;;;-4.17;77.72;102694.03;4987310;28;20051;-73
2022/03/07 00:32:19;;;;;;;11.13;8.88;;;;;;;-4.21;77.83;102694.56;5026890;28;20120;-73
2022/03/07 00:34:46;;;;;;;19.60;9.73;;;;;;;-4.23;78.45;102699.56;5003955;28;20025;-73
2022/03/07 00:37:14;;;;;;;13.50;9.05;;;;;;;-4.24;78.71;102715.72;5023824;28;20497;-73
2022/03/07 00:39:39;;;;;;;12.20;9.27;;;;;;;-4.25;78.60;102715.56;5025800;28;20090;-73
2022/03/07 00:42:05;;;;;;;11.55;8.80;;;;;;;-4.27;78.59;102719.69;5006954;28;20037;-73
2022/03/07 00:44:30;;;;;;;13.13;8.32;;;;;;;-4.28;78.60;102713.69;5022316;28;20479;-73
2022/03/07 00:46:56;;;;;;;11.35;7.95;;;;;;;-4.32;78.38;102716.78;5011130;28;20037;-73
2022/03/07 00:49:21;;;;;;;13.18;8.40;;;;;;;-4.33;78.97;102712.41;5005237;28;20052;-73
2022/03/07 00:51:47;;;;;;;13.07;8.88;;;;;;;-4.34;79.03;102705.50;5001434;28;20118;-73
2022/03/07 00:54:15;;;;;;;16.90;8.93;;;;;;;-4.36;78.99;102713.06;5029262;28;20025;-73
2022/03/07 00:56:41;;;;;;;13.07;8.27;;;;;;;-4.27;79.49;102709.44;5008508;28;20026;-73
2022/03/07 00:59:07;;;;;;;9.07;8.15;;;;;;;-4.28;79.33;102708.56;5007985;28;20506;-73
2022/03/07 01:01:33;;;;;;;12.23;8.75;;;;;;;-4.25;79.63;102713.00;4998881;28;20128;-74
2022/03/07 01:03:58;;;;;;;15.35;9.80;;;;;;;-4.32;79.52;102711.66;5011111;28;20033;-72
2022/03/07 01:06:24;;;;;;;10.35;7.78;;;;;;;-4.32;79.28;102711.66;5018448;28;20485;-71
2022/03/07 01:08:49;;;;;;;10.15;7.95;;;;;;;-4.37;79.08;102718.06;4984813;28;20375;-70
2022/03/07 01:11:15;;;;;;;10.23;7.28;;;;;;;-4.43;78.92;102721.03;5028379;28;20037;-70
2022/03/07 01:13:40;;;;;;;13.45;7.75;;;;;;;-4.46;78.87;102717.34;4989544;28;20045;-71
2022/03/07 01:16:06;;;;;;;9.80;8.15;;;;;;;-4.49;79.33;102714.53;5003074;28;20049;-71
2022/03/07 01:18:32;;;;;;;12.30;7.82;;;;;;;-4.48;80.09;102718.88;5010644;28;20056;-71
2022/03/07 01:20:58;;;;;;;12.25;8.40;;;;;;;-4.52;79.65;102718.63;5018807;28;20037;-70
2022/03/07 01:23:23;;;;;;;11.93;8.90;;;;;;;-4.53;79.45;102719.41;5007910;28;20053;-71
2022/03/07 01:25:51;;;;;;;15.38;9.13;;;;;;;-4.52;79.45;102722.88;4988655;28;20026;-71
2022/03/07 01:28:16;;;;;;;11.25;7.85;;;;;;;-4.52;80.48;102713.50;4994616;28;20037;-70
2022/03/07 01:30:42;;;;;;;18.90;8.60;;;;;;;-4.52;80.66;102718.63;5011975;28;20041;-71
2022/03/07 01:33:07;;;;;;;13.10;9.07;;;;;;;-4.47;80.49;102720.66;4991381;28;20033;-71
2022/03/07 01:35:33;;;;;;;12.90;9.02;;;;;;;-4.49;80.61;102712.00;5027434;28;20136;-71
2022/03/07 01:37:58;;;;;;;15.45;7.82;;;;;;;-4.54;80.41;102709.94;4996782;28;20045;-70
2022/03/07 01:40:24;;;;;;;15.00;8.98;;;;;;;-4.55;80.47;102708.16;4999441;28;20087;-72
2022/03/07 01:42:50;;;;;;;13.02;8.68;;;;;;;-4.57;80.64;102706.25;5032496;28;20029;-71
2022/03/07 01:45:18;;;;;;;15.10;9.15;;;;;;;-4.61;80.24;102714.44;4999287;28;20312;-70
2022/03/07 01:47:44;;;;;;;11.65;8.60;;;;;;;-4.61;80.06;102712.78;5015346;28;20045;-71
2022/03/07 01:50:12;;;;;;;12.25;8.13;;;;;;;-4.66;80.30;102708.06;5029775;28;20499;-70
2022/03/07 01:52:39;;;;;;;13.05;8.93;;;;;;;-4.70;80.46;102701.81;5031602;28;20037;-70
2022/03/07 01:55:07;;;;;;;13.52;8.93;;;;;;;-4.73;80.61;102702.44;5032373;28;20017;-70
2022/03/07 01:57:36;;;;;;;11.48;8.13;;;;;;;-4.75;81.07;102705.69;5031495;28;20466;-71
2022/03/07 02:00:07;;;;;;;12.05;7.68;;;;;;;-4.75;81.38;102704.00;5032272;28;20042;-71
2022/03/07 02:02:32;;;;;;;15.23;9.60;;;;;;;-4.76;81.11;102707.31;5028916;28;20040;-70
2022/03/07 02:04:58;;;;;;;10.60;8.77;;;;;;;-4.74;81.44;102708.34;5000356;28;20021;-70
2022/03/07 02:07:24;;;;;;;9.98;8.23;;;;;;;-4.75;81.81;102711.66;5032314;28;20026;-71
2022/03/07 02:09:50;;;;;;;11.02;9.10;;;;;;;-4.73;81.64;102706.69;5015030;28;20030;-70
2022/03/07 02:12:16;;;;;;;13.73;8.93;;;;;;;-4.73;82.58;102701.56;5031992;28;20072;-70
2022/03/07 02:14:41;;;;;;;12.65;8.52;;;;;;;-4.73;82.58;102693.88;5015802;28;20045;-70
2022/03/07 02:17:07;;;;;;;13.48;8.55;;;;;;;-4.72;82.63;102694.00;4997202;28;20040;-70
2022/03/07 02:19:34;;;;;;;15.60;9.43;;;;;;;-4.72;82.50;102694.00;4996258;28;20103;-71
2022/03/07 02:22:01;;;;;;;13.50;9.70;;;;;;;-4.70;82.41;102691.56;4996685;28;20057;-70
2022/03/07 02:24:28;;;;;;;13.07;9.20;;;;;;;-4.70;82.50;102687.38;5031750;28;20033;-70
2022/03/07 02:27:03;;;;;;;14.38;9.65;;;;;;;-4.70;82.64;102691.56;5013177;28;20043;-70
2022/03/07 02:29:29;;;;;;;12.23;9.07;;;;;;;-4.71;82.69;102694.94;5028946;28;20032;-72
2022/03/07 02:31:55;;;;;;;13.45;9.85;;;;;;;-4.70;82.27;102691.56;5013912;28;20500;-71
2022/03/07 02:34:22;;;;;;;15.13;8.93;;;;;;;-4.70;82.45;102692.50;5015067;28;20136;-70
2022/03/07 02:36:47;;;;;;;12.38;9.02;;;;;;;-4.68;82.57;102690.06;5015011;28;20037;-71
2022/03/07 02:39:15;;;;;;;16.40;9.38;;;;;;;-4.68;83.03;102697.72;5006657;28;20044;-70
2022/03/07 02:41:41;;;;;;;21.60;10.20;;;;;;;-4.73;82.23;102691.34;5014938;28;20044;-71
2022/03/07 02:44:07;;;;;;;12.82;9.20;;;;;;;-4.78;81.46;102696.09;5016736;28;20381;-71
2022/03/07 02:46:36;;;;;;;14.32;10.57;;;;;;;-4.81;82.43;102688.16;5014113;28;20034;-71
2022/03/07 02:49:03;;;;;;;15.60;10.73;;;;;;;-4.77;82.77;102694.41;5012712;28;20033;-71
2022/03/07 02:51:29;;;;;;;12.27;8.57;;;;;;;-4.75;82.92;102695.44;5023079;28;20022;-71
2022/03/07 02:53:54;;;;;;;13.60;10.80;;;;;;;-4.73;83.29;102697.31;5030939;28;20354;-71
2022/03/07 02:56:20;;;;;;;15.27;8.73;;;;;;;-4.77;83.11;102691.84;5007863;28;20402;-71
2022/03/07 02:58:46;;;;;;;20.00;12.18;;;;;;;-4.73;82.97;102687.09;5013425;28;20030;-71
2022/03/07 03:01:12;;;;;;;15.13;10.30;;;;;;;-4.72;82.70;102693.13;4994361;28;20474;-71
2022/03/07 03:03:37;;;;;;;16.63;10.85;;;;;;;-4.70;83.00;102686.47;5030983;28;20485;-71
2022/03/07 03:06:03;;;;;;;15.18;9.68;;;;;;;-4.72;82.87;102685.44;5014088;28;20048;-71
2022/03/07 03:08:28;;;;;;;19.83;10.27;;;;;;;-4.71;83.11;102683.03;5012082;28;20037;-71
2022/03/07 03:10:57;;;;;;;12.57;9.95;;;;;;;-4.67;82.99;102685.81;5030568;28;20564;-71
2022/03/07 03:13:23;;;;;;;11.40;9.65;;;;;;;-4.70;83.12;102694.13;5013999;28;20078;-71
2022/03/07 03:15:50;;;;;;;15.88;9.60;;;;;;;-4.72;82.88;102688.00;4997373;28;20131;-71
2022/03/07 03:18:20;;;;;;;16.60;10.60;;;;;;;-4.73;83.56;102687.09;5029867;28;21923;-72
2022/03/07 03:20:47;;;;;;;15.60;10.23;;;;;;;-4.70;83.14;102691.56;5030478;28;20095;-71
2022/03/07 03:23:15;;;;;;;13.85;10.80;;;;;;;-4.68;82.95;102695.16;5029924;28;20509;-71
2022/03/07 03:25:44;;;;;;;17.60;10.65;;;;;;;-4.63;83.59;102688.72;5029611;28;20034;-70
2022/03/07 03:28:09;;;;;;;17.55;10.70;;;;;;;-4.60;83.64;102693.22;5013705;28;20110;-71
2022/03/07 03:30:38;;;;;;;19.70;11.25;;;;;;;-4.60;84.02;102691.53;5013328;28;20206;-71
2022/03/07 03:33:06;;;;;;;16.67;10.07;;;;;;;-4.57;83.77;102688.31;5027557;28;20065;-71
2022/03/07 03:35:36;;;;;;;16.67;10.15;;;;;;;-4.55;84.06;102685.13;5023689;28;20030;-72
2022/03/07 03:38:06;;;;;;;21.27;11.23;;;;;;;-4.50;84.20;102693.16;5011076;28;20029;-70
2022/03/07 03:40:31;;;;;;;15.07;11.55;;;;;;;-4.49;84.20;102702.63;5023931;28;20426;-71
2022/03/07 03:42:57;;;;;;;16.38;10.10;;;;;;;-4.47;83.78;102707.88;5009039;28;20037;-71
2022/03/07 03:45:22;;;;;;;20.75;11.85;;;;;;;-4.50;83.39;102700.84;5007755;28;20128;-71
2022/03/07 03:47:48;;;;;;;18.65;10.75;;;;;;;-4.48;83.09;102704.44;5007374;28;20494;-71
2022/03/07 03:50:14;;;;;;;26.45;13.10;;;;;;;-4.50;83.50;102697.41;5006833;28;20025;-71
2022/03/07 03:52:41;;;;;;;19.85;12.77;;;;;;;-4.50;83.80;102697.41;5001642;28;20163;-71
2022/03/07 03:55:10;;;;;;;16.80;10.48;;;;;;;-4.55;83.66;102705.59;5009410;28;20041;-71
2022/03/07 03:57:38;;;;;;;19.35;11.90;;;;;;;-4.56;83.50;102705.47;5025021;28;20033;-72
2022/03/07 04:00:11;;;;;;;17.98;12.00;;;;;;;-4.56;83.30;102703.81;5026515;28;20021;-71
2022/03/07 04:02:38;;;;;;;13.95;11.13;;;;;;;-4.57;83.10;102701.13;5024766;28;20033;-72
2022/03/07 04:05:04;;;;;;;16.45;10.77;;;;;;;-4.55;83.72;102697.03;5021432;28;20111;-72
2022/03/07 04:07:30;;;;;;;16.98;12.55;;;;;;;-4.52;83.84;102708.41;4992210;28;20087;-71
2022/03/07 04:09:55;;;;;;;16.55;12.02;;;;;;;-4.60;83.34;102701.75;5005752;28;20041;-71
2022/03/07 04:12:21;;;;;;;16.80;10.90;;;;;;;-4.63;83.12;102704.09;5006934;28;20442;-71
2022/03/07 04:14:46;;;;;;;18.85;11.43;;;;;;;-4.62;83.01;102705.88;5008622;28;20049;-70
2022/03/07 04:17:12;;;;;;;18.98;12.00;;;;;;;-4.57;83.31;102703.69;5012708;28;20088;-71
2022/03/07 04:19:37;;;;;;;16.77;10.88;;;;;;;-4.58;83.92;102692.56;4993580;28;20056;-71
2022/03/07 04:22:03;;;;;;;16.42;11.93;;;;;;;-4.53;84.66;102693.81;5008523;28;20057;-71
2022/03/07 04:24:30;;;;;;;20.13;12.15;;;;;;;-4.50;84.30;102700.84;5020411;28;20091;-71
2022/03/07 04:26:57;;;;;;;18.08;12.10;;;;;;;-4.46;84.34;102697.75;5011745;28;20048;-71
2022/03/07 04:29:22;;;;;;;21.73;13.65;;;;;;;-4.47;84.59;102700.19;5023749;28;20048;-71
2022/03/07 04:31:48;;;;;;;20.65;11.52;;;;;;;-4.45;84.37;102699.56;5017832;28;20025;-71
2022/03/07 04:34:13;;;;;;;18.52;12.57;;;;;;;-4.44;84.81;102697.88;5028151;28;20032;-71
2022/03/07 04:36:44;;;;;;;17.40;12.65;;;;;;;-4.42;84.55;102701.47;4992345;28;20075;-71
2022/03/07 04:39:09;;;;;;;;;;;;;;;-4.43;83.91;102703.09;5020631;28;20036;-71
2022/03/07 04:41:40;;;;;;;17.48;11.73;;;;;;;-4.42;84.13;102697.22;5029510;28;20016;-71
2022/03/07 04:44:06;;;;;;;15.10;11.32;;;;;;;-4.40;84.57;102697.34;5025381;28;20060;-71
2022/03/07 04:46:32;;;;;;;18.52;12.48;;;;;;;-4.38;84.40;102693.25;5008872;28;20037;-71
2022/03/07 04:48:57;;;;;;;17.92;11.80;;;;;;;-4.35;84.52;102691.81;5012664;28;20033;-71
2022/03/07 04:51:23;;;;;;;17.73;12.02;;;;;;;-4.37;84.65;102695.03;5028630;28;20457;-71
2022/03/07 04:53:48;;;;;;;18.10;12.88;;;;;;;-4.36;84.09;102694.25;5011387;28;20646;-71
2022/03/07 04:56:15;;;;;;;17.77;11.35;;;;;;;-4.36;84.21;102696.81;4994345;28;20037;-71
2022/03/07 04:58:40;;;;;;;22.10;11.32;;;;;;;-4.39;84.00;102701.69;5011955;28;20053;-71
2022/03/07 05:01:06;;;;;;;17.40;11.05;;;;;;;-4.41;83.79;102705.78;5027526;28;20052;-72
2022/03/07 05:03:31;;;;;;;16.50;10.38;;;;;;;-4.46;84.36;102702.88;5026325;28;20032;-71
2022/03/07 05:05:57;;;;;;;20.10;11.68;;;;;;;-4.47;84.43;102698.50;5025024;28;20459;-71
2022/03/07 05:08:23;;;;;;;17.77;10.95;;;;;;;-4.46;84.24;102694.31;5028084;28;20037;-71
2022/03/07 05:10:48;;;;;;;18.63;12.65;;;;;;;-4.44;84.42;102695.31;5028356;28;20075;-71
2022/03/07 05:13:14;;;;;;;20.73;11.52;;;;;;;-4.43;83.99;102697.09;5019131;28;20021;-70
2022/03/07 05:15:40;;;;;;;22.98;12.98;;;;;;;-4.41;84.44;102690.44;5018424;28;20100;-71
2022/03/07 05:18:06;;;;;;;16.40;11.85;;;;;;;-4.41;84.46;102687.88;5026939;28;20044;-71
2022/03/07 05:20:32;;;;;;;18.92;11.35;;;;;;;-4.40;84.12;102693.09;5019276;28;20096;-71
2022/03/07 05:22:57;;;;;;;20.55;12.00;;;;;;;-4.40;84.89;102692.22;5034224;28;20049;-71
2022/03/07 05:25:23;;;;;;;17.52;12.88;;;;;;;-4.37;84.50;102695.94;5012827;28;20025;-71
2022/03/07 05:27:49;;;;;;;16.73;11.65;;;;;;;-4.37;84.42;102692.47;5029157;28;20034;-71
2022/03/07 05:30:18;;;;;;;17.05;12.18;;;;;;;-4.38;84.47;102696.69;5034842;28;20064;-71
2022/03/07 05:32:50;;;;;;;20.92;12.27;;;;;;;-4.38;84.25;102695.81;5034693;28;20017;-71
2022/03/07 05:35:16;;;;;;;25.90;12.02;;;;;;;-4.36;85.10;102696.81;5034511;28;20026;-70
2022/03/07 05:37:41;;;;;;;21.20;12.00;;;;;;;-4.35;85.03;102690.94;5011399;28;20037;-71
2022/03/07 05:40:09;;;;;;;19.63;11.63;;;;;;;-4.32;84.26;102703.97;4998599;28;20033;-71
2022/03/07 05:42:35;;;;;;;16.25;11.70;;;;;;;-4.35;84.56;102696.94;5010549;28;20032;-71
2022/03/07 05:45:05;;;;;;;15.05;11.85;;;;;;;-4.40;84.87;102688.00;5027709;28;20018;-71
2022/03/07 05:47:31;;;;;;;16.77;11.98;;;;;;;-4.45;84.16;102694.44;5031729;28;20073;-71
2022/03/07 05:49:59;;;;;;;16.50;12.82;;;;;;;-4.47;84.55;102690.84;5014186;28;20056;-71
2022/03/07 05:52:25;;;;;;;17.50;13.27;;;;;;;-4.44;84.11;102695.31;5025510;28;20091;-71
2022/03/07 05:54:50;;;;;;;22.67;11.63;;;;;;;-4.48;84.93;102700.97;5031007;28;20470;-72
2022/03/07 05:57:16;;;;;;;19.08;13.23;;;;;;;-4.48;84.56;102706.06;5012475;28;20026;-71
2022/03/07 05:59:42;;;;;;;17.92;12.50;;;;;;;-4.48;85.06;102708.63;5009433;28;20120;-71
2022/03/07 06:02:07;;;;;;;22.00;11.63;;;;;;;-4.47;84.68;102710.44;5024099;28;20466;-71
2022/03/07 06:04:33;;;;;;;22.23;12.43;;;;;;;-4.48;84.75;102712.09;5025751;28;20031;-71
2022/03/07 06:06:58;;;;;;;25.13;14.25;;;;;;;-4.47;84.77;102718.09;5015933;28;20033;-71
2022/03/07 06:09:24;;;;;;;20.10;13.38;;;;;;;-4.46;85.31;102725.03;5028827;28;20037;-71
2022/03/07 06:11:49;;;;;;;17.85;13.35;;;;;;;-4.46;85.11;102723.34;5014720;28;20034;-71
2022/03/07 06:14:15;;;;;;;31.77;13.63;;;;;;;-4.45;84.94;102720.03;5002760;28;20025;-70
2022/03/07 06:16:41;;;;;;;18.20;13.43;;;;;;;-4.43;84.83;102727.81;5034610;28;20064;-71
2022/03/07 06:19:06;;;;;;;18.75;12.10;;;;;;;-4.43;85.32;102738.06;5034934;28;20722;-71
2022/03/07 06:21:34;;;;;;;26.25;13.55;;;;;;;-4.39;85.17;102738.41;5033353;28;20021;-71
2022/03/07 06:24:00;;;;;;;23.63;13.57;;;;;;;-4.37;85.15;102739.44;4997290;28;20144;-71
2022/03/07 06:26:25;;;;;;;18.73;12.23;;;;;;;-4.34;84.86;102743.91;5015032;28;20045;-71
2022/03/07 06:28:53;;;;;;;23.35;15.25;;;;;;;-4.29;84.88;102742.59;5012075;28;20083;-71
2022/03/07 06:31:19;;;;;;;21.00;13.18;;;;;;;-4.25;84.16;102742.09;5011772;28;20195;-71
2022/03/07 06:33:44;;;;;;;21.20;14.40;;;;;;;-4.18;84.54;102746.00;5009531;28;20026;-71
2022/03/07 06:36:10;;;;;;;22.30;11.57;;;;;;;-4.10;84.55;102738.94;5014413;28;20044;-71
2022/03/07 06:38:39;;;;;;;20.10;13.85;;;;;;;-4.01;84.16;102749.88;5032394;28;20021;-70
2022/03/07 06:41:06;;;;;;;24.27;13.02;;;;;;;-3.83;84.41;102740.19;5013611;28;20099;-70
2022/03/07 06:43:32;;;;;;;20.42;13.77;;;;;;;-3.46;84.60;102740.47;5031904;28;20025;-71
2022/03/07 06:45:58;;;;;;;19.77;13.65;;;;;;;-3.01;84.28;102741.22;5029766;28;20026;-71
2022/03/07 06:48:23;;;;;;;23.25;13.98;;;;;;;-2.51;82.88;102744.03;5011632;28;20036;-71
2022/03/07 06:50:49;;;;;;;20.60;13.75;;;;;;;-2.01;81.38;102742.38;4991726;28;20033;-71
2022/03/07 06:53:14;;;;;;;24.10;15.15;;;;;;;-1.54;80.10;102744.75;4987208;28;20088;-71
2022/03/07 06:55:40;;;;;;;19.95;13.00;;;;;;;-0.89;79.18;102754.22;5013873;28;20040;-71
2022/03/07 06:58:06;;;;;;;20.50;13.98;;;;;;;-0.37;76.13;102747.31;5001869;28;20104;-72
2022/03/07 07:00:32;;;;;;;21.02;14.90;;;;;;;0.30;75.86;102741.09;5030394;28;20021;-72
2022/03/07 07:02:58;;;;;;;28.67;13.00;;;;;;;0.93;72.97;102731.94;5030786;28;20025;-72
2022/03/07 07:05:24;;;;;;;25.55;13.32;;;;;;;1.56;70.13;102744.97;5014210;28;20038;-71
2022/03/07 07:07:49;;;;;;;18.25;12.98;;;;;;;1.89;67.36;102737.28;5022367;28;20079;-72
2022/03/07 07:10:18;;;;;;;22.83;13.13;;;;;;;1.99;66.22;102741.28;5030847;28;21190;-72
2022/03/07 07:12:45;;;;;;;20.80;12.82;;;;;;;2.06;66.19;102731.31;5030369;28;20060;-72
2022/03/07 07:15:11;;;;;;;21.55;12.75;;;;;;;2.90;68.73;102738.22;5007814;28;20034;-72
2022/03/07 07:17:37;;;;;;;17.52;13.93;;;;;;;3.98;65.19;102735.63;4998258;28;20023;-72
2022/03/07 07:20:04;;;;;;;17.60;13.02;;;;;;;5.14;61.01;102738.91;5005805;28;20371;-72
2022/03/07 07:22:30;;;;;;;16.17;12.93;;;;;;;6.30;57.72;102726.88;5014545;28;20056;-72
2022/03/07 07:24:56;;;;;;;13.98;11.40;;;;;;;7.21;55.97;102727.34;4991031;28;20026;-73
2022/03/07 07:27:21;;;;;;;16.77;13.27;;;;;;;8.07;51.49;102722.16;5012497;28;20064;-72
2022/03/07 07:29:47;;;;;;;16.77;12.23;;;;;;;8.50;50.33;102727.72;5009107;28;20036;-72
2022/03/07 07:32:12;;;;;;;16.25;13.27;;;;;;;9.17;49.17;102727.72;4995972;28;20091;-73
2022/03/07 07:34:37;;;;;;;14.70;12.57;;;;;;;9.70;46.66;102725.44;4991096;28;20025;-72
2022/03/07 07:37:03;;;;;;;14.93;12.60;;;;;;;10.05;44.72;102720.06;5028605;28;20095;-72
2022/03/07 07:39:29;;;;;;;14.90;12.55;;;;;;;10.32;44.86;102720.59;5004846;28;20140;-72
2022/03/07 07:41:56;;;;;;;14.20;12.70;;;;;;;10.48;42.00;102737.53;5028129;28;20044;-73
2022/03/07 07:44:21;;;;;;;15.77;14.10;;;;;;;10.95;42.43;102734.88;5006528;28;20030;-73
2022/03/07 07:46:47;;;;;;;20.05;14.48;;;;;;;11.53;40.71;102731.41;5010225;28;20179;-73
2022/03/07 07:49:13;;;;;;;18.23;14.15;;;;;;;11.89;40.00;102736.28;4996888;28;20030;-73
2022/03/07 07:51:42;;;;;;;17.13;14.10;;;;;;;11.90;39.16;102740.69;5005722;28;20025;-72
2022/03/07 07:54:08;;;;;;;17.20;13.75;;;;;;;12.17;37.71;102741.03;4992418;28;20032;-72
2022/03/07 07:56:33;;;;;;;17.50;14.30;;;;;;;12.20;37.48;102736.69;5012607;28;20033;-72
2022/03/07 07:58:59;;;;;;;18.63;13.57;;;;;;;12.96;36.83;102737.47;5010333;28;20025;-73
2022/03/07 08:01:24;;;;;;;15.82;13.77;;;;;;;13.02;35.99;102742.78;4998097;28;20033;-72
2022/03/07 08:03:49;;;;;;;15.15;13.40;;;;;;;13.73;35.61;102732.75;5019655;28;20394;-72
2022/03/07 08:06:15;;;;;;;15.80;12.43;;;;;;;14.12;34.41;102743.47;5004122;28;20025;-73
2022/03/07 08:08:40;;;;;;;13.82;12.30;;;;;;;14.53;32.84;102745.38;4988178;28;20034;-73
2022/03/07 08:11:06;;;;;;;15.48;13.23;;;;;;;14.72;31.97;102739.28;5000801;28;20398;-73
2022/03/07 08:13:32;;;;;;;14.63;13.20;;;;;;;14.86;33.42;102749.84;5006815;28;20115;-73
2022/03/07 08:15:57;;;;;;;15.07;12.93;;;;;;;15.37;31.30;102741.94;5012456;28;20038;-72
2022/03/07 08:18:23;;;;;;;15.55;13.63;;;;;;;16.15;30.27;102745.25;4987029;28;20129;-72
2022/03/07 08:20:50;;;;;;;15.50;12.27;;;;;;;16.15;29.69;102749.63;5008738;28;20053;-73
2022/03/07 08:23:15;;;;;;;14.55;12.98;;;;;;;16.24;29.28;102742.53;5024371;28;20045;-73
2022/03/07 08:25:41;;;;;;;14.13;12.68;;;;;;;16.31;28.25;102748.69;5027601;28;20490;-73
2022/03/07 08:28:06;;;;;;;16.05;12.68;;;;;;;16.90;28.75;102746.56;5025228;28;20352;-73
2022/03/07 08:30:33;;;;;;;14.10;12.68;;;;;;;17.61;28.39;102743.25;4985821;28;20470;-73
2022/03/07 08:32:59;;;;;;;15.32;11.50;;;;;;;17.82;27.75;102738.59;4993754;28;20409;-73
2022/03/07 08:35:24;;;;;;;13.48;11.07;;;;;;;17.86;27.69;102740.31;5007733;28;20057;-73
2022/03/07 08:37:52;;;;;;;11.30;10.13;;;;;;;17.82;26.08;102744.75;4988400;28;20052;-73
2022/03/07 08:40:19;;;;;;;11.95;10.15;;;;;;;17.40;26.79;102751.44;5024962;28;20067;-73
2022/03/07 08:42:45;;;;;;;12.75;10.45;;;;;;;17.93;27.61;102741.13;5022345;28;20040;-73
2022/03/07 08:45:11;;;;;;;13.98;10.23;;;;;;;17.73;26.34;102747.53;4998227;28;20030;-73
2022/03/07 08:47:39;;;;;;;10.27;9.32;;;;;;;17.71;25.60;102745.78;5016381;28;20044;-73
2022/03/07 08:50:09;;;;;;;11.18;9.88;;;;;;;18.16;27.21;102743.53;5024953;28;20042;-73
2022/03/07 08:52:36;;;;;;;10.20;9.25;;;;;;;18.09;25.07;102750.66;5020808;28;20025;-73
2022/03/07 08:55:03;;;;;;;14.50;8.75;;;;;;;17.70;24.97;102742.28;4990258;28;20438;-73
2022/03/07 08:57:29;;;;;;;9.80;8.82;;;;;;;17.75;23.84;102739.56;5025177;28;20451;-73
2022/03/07 08:59:54;;;;;;;8.85;7.93;;;;;;;17.46;25.86;102746.06;4987493;28;20030;-72
2022/03/07 09:02:20;;;;;;;9.23;8.32;;;;;;;17.44;25.28;102753.13;4999825;28;20652;-75
2022/03/07 09:04:45;;;;;;;7.30;6.70;;;;;;;16.83;25.56;102739.53;5003256;28;20465;-73
2022/03/07 09:07:11;;;;;;;10.75;8.18;;;;;;;16.76;24.56;102730.72;5006082;28;20040;-75
2022/03/07 09:09:37;;;;;;;7.75;7.03;;;;;;;16.88;24.31;102729.81;4994165;28;20037;-73
2022/03/07 09:12:04;;;;;;;8.35;7.43;;;;;;;16.77;25.59;102731.63;5021974;28;20034;-73
2022/03/07 09:14:29;;;;;;;9.13;7.82;;;;;;;16.43;25.62;102726.56;5021791;28;20367;-73
2022/03/07 09:16:55;;;;;;;13.18;7.15;;;;;;;16.70;24.77;102730.78;5027701;28;20033;-74
2022/03/07 09:19:20;;;;;;;13.73;7.13;;;;;;;17.09;26.04;102731.38;4988684;28;20029;-73
2022/03/07 09:21:46;;;;;;;8.70;6.90;;;;;;;17.18;24.01;102730.41;5009703;28;20464;-75
2022/03/07 09:24:12;;;;;;;10.20;7.47;;;;;;;17.13;24.19;102727.81;5027640;28;20083;-74
2022/03/07 09:26:38;;;;;;;9.20;8.27;;;;;;;16.49;25.67;102720.34;5006994;28;20029;-73
2022/03/07 09:29:03;;;;;;;7.63;6.82;;;;;;;15.71;27.75;102730.38;4991191;28;20453;-74
2022/03/07 09:31:29;;;;;;;8.57;6.93;;;;;;;13.47;29.60;102733.50;5003593;28;20099;-73
2022/03/07 09:33:55;;;;;;;6.10;5.20;;;;;;;11.99;30.05;102726.81;5011155;28;20037;-73
2022/03/07 09:36:20;;;;;;;7.20;6.50;;;;;;;10.08;35.78;102727.09;5024834;28;20040;-72
2022/03/07 09:38:46;;;;;;;7.35;6.40;;;;;;;9.05;36.25;102728.28;5009057;28;20028;-75
2022/03/07 09:41:14;;;;;;;8.88;6.88;;;;;;;8.19;39.67;102729.47;4983395;28;20049;-74
2022/03/07 09:43:41;;;;;;;5.70;5.15;;;;;;;7.88;37.46;102725.94;5002534;28;20026;-73
2022/03/07 09:46:07;;;;;;;6.63;5.97;;;;;;;7.24;39.58;102738.78;5010663;28;20030;-75
2022/03/07 09:48:33;;;;;;;7.35;5.80;;;;;;;6.76;39.79;102737.19;4994604;28;20115;-73
2022/03/07 09:50:59;;;;;;;8.10;6.50;;;;;;;6.40;42.75;102734.19;5000975;28;20034;-72
2022/03/07 09:53:24;;;;;;;7.10;6.50;;;;;;;7.06;42.33;102731.22;4986640;28;20120;-72
2022/03/07 09:55:50;;;;;;;5.95;5.45;;;;;;;8.61;37.40;102731.50;5006953;28;20128;-74
2022/03/07 09:58:15;;;;;;;7.05;5.95;;;;;;;10.54;35.60;102716.66;5010519;28;20033;-74
2022/03/07 10:00:42;;;;;;;5.65;4.80;;;;;;;11.34;33.35;102733.75;5015593;28;20031;-73
2022/03/07 10:03:11;;;;;;;6.63;6.00;;;;;;;12.84;31.03;102698.75;5016745;28;20121;-73
2022/03/07 10:05:39;;;;;;;5.43;4.93;;;;;;;14.34;29.60;102695.22;5024408;28;20096;-72
2022/03/07 10:08:06;;;;;;;7.40;5.50;;;;;;;15.88;27.21;102699.50;5029469;28;20029;-72
2022/03/07 10:10:45;;;;;;;6.90;5.82;;;;;;;16.70;25.30;102700.81;4998553;28;20029;-72
2022/03/07 10:13:14;;;;;;;6.47;5.43;;;;;;;16.86;25.43;102694.47;5027735;28;20021;-74
2022/03/07 10:15:42;;;;;;;6.32;5.70;;;;;;;16.76;25.10;102701.59;5029556;28;20037;-74
2022/03/07 10:18:16;;;;;;;5.20;4.70;;;;;;;16.14;26.49;102703.81;5029297;28;20030;-77
2022/03/07 10:20:53;;;;;;;8.35;5.30;;;;;;;15.31;26.95;102701.41;5022521;28;20025;-74
2022/03/07 10:23:25;;;;;;;9.50;5.03;;;;;;;15.12;26.22;102698.81;5029751;28;20277;-74
2022/03/07 10:25:51;;;;;;;5.40;4.28;;;;;;;15.71;26.21;102691.63;5011768;28;20160;-73
2022/03/07 10:28:17;;;;;;;4.60;4.20;;;;;;;15.90;25.67;102699.50;5027986;28;20487;-74
2022/03/07 10:30:44;;;;;;;5.57;4.97;;;;;;;17.08;24.27;102692.56;5008602;28;20052;-74
2022/03/07 10:33:12;;;;;;;7.57;4.30;;;;;;;17.52;23.44;102685.03;5025190;28;20040;-75
2022/03/07 10:35:41;;;;;;;6.13;5.25;;;;;;;19.02;23.11;102677.59;5011655;28;20039;-73
2022/03/07 10:38:13;;;;;;;4.78;4.32;;;;;;;18.66;22.85;102678.19;5024089;28;20033;-74
2022/03/07 10:40:43;;;;;;;6.40;4.32;;;;;;;18.38;23.92;102676.88;5027551;28;20479;-76
2022/03/07 10:43:09;;;;;;;4.78;4.38;;;;;;;16.97;23.37;102674.13;5026765;28;20039;-75
2022/03/07 10:45:50;;;;;;;7.68;4.50;;;;;;;17.40;24.30;102663.97;5025853;28;20033;-75
2022/03/07 10:48:17;;;;;;;5.15;4.35;;;;;;;17.09;23.29;102667.81;5017768;28;20065;-77
2022/03/07 10:50:49;;;;;;;4.35;4.03;;;;;;;17.24;24.67;102658.84;5026286;28;20039;-76
2022/03/07 10:53:15;;;;;;;7.18;4.88;;;;;;;17.60;22.45;102669.06;5027701;28;20033;-73
2022/03/07 10:55:50;;;;;;;8.85;5.03;;;;;;;18.00;23.06;102665.88;5022728;28;20053;-75
2022/03/07 10:58:16;;;;;;;12.32;5.55;;;;;;;17.85;23.02;102651.03;5022524;28;20049;-76
2022/03/07 11:00:52;;;;;;;5.13;4.68;;;;;;;17.26;24.25;102648.22;5005024;28;20076;-73
2022/03/07 11:03:22;;;;;;;5.57;5.07;;;;;;;17.50;23.05;102644.44;5021509;28;20032;-74
2022/03/07 11:05:48;;;;;;;;;;;;;;;18.15;23.69;102640.94;5028519;28;20035;-75
2022/03/07 11:08:15;;;;;;;6.60;5.32;;;;;;;18.60;22.67;102632.25;5029167;28;20035;-74
2022/03/07 11:11:01;;;;;;;7.25;5.35;;;;;;;18.66;23.23;102626.84;5006580;28;20041;-75
2022/03/07 11:13:29;;;;;;;5.63;5.13;;;;;;;18.98;22.11;102623.66;5029506;28;20132;-74